logo
Rechercher aéroport 
image banner adimage banner adimage banner ad
image banner ad

KSBD - San Bernardino Intl

Situé à San Bernardino, United States

ICAO - SBD, IATA - SBD

Données fournies par Airmate  

Information générale

Coordonnées: N34°5'43" W117°14'6"
Élévation : 1159 feet MSL.
Variation magnétique : 13° East
Voir autres Aéroports à California

Données opérationnelles

Special qualification required
Heure actuelle UTC:
Heure actuelle locale:
Météo
METAR: KSBD 011759Z 25004KT 5SM HZ SCT019 21/13 A2990
TAF: KSBD 011737Z 0118/0218 VRB04KT 4SM HZ SCT020 FM012100 25010KT P6SM SKC FM020400 VRB04KT P6SM SKC FM020900 VRB03KT P6SM BKN012 FM021700 VRB04KT P6SM SCT015
Voir NOTAMs / SUP AIP / TFR affectant cet aéroport [VIEW]
Fréquences de communication: [VIEW]

Pistes:

Identifiant RWYQFULongueur (ft)Largeur (ft)SurfaceLDA (ft)
0670°10000200CONC10000
24250°10000200CONC10000

Coordonnées de l'aéroport

Adresse: San Bernardino United States

Vue satellite de KSBD